sensor_id;sensor_type;location;lat;lon;timestamp;pressure;altitude;pressure_sealevel;temperature;humidity
77360;BME280;66426;51.454;7.266;2023-07-22T00:00:53;99974.66;;;14.79;nan
77360;BME280;66426;51.454;7.266;2023-07-22T00:01:53;99976.19;;;14.83;nan
77360;BME280;66426;51.454;7.266;2023-07-22T00:02:54;99974.00;;;14.76;nan
77360;BME280;66426;51.454;7.266;2023-07-22T00:03:55;99976.19;;;14.83;nan
77360;BME280;66426;51.454;7.266;2023-07-22T00:04:55;99977.81;;;14.73;nan
77360;BME280;66426;51.454;7.266;2023-07-22T00:06:03;99975.09;;;14.73;nan
77360;BME280;66426;51.454;7.266;2023-07-22T00:07:04;99971.41;;;14.74;nan
77360;BME280;66426;51.454;7.266;2023-07-22T00:08:05;99975.31;;;14.83;nan
77360;BME280;66426;51.454;7.266;2023-07-22T00:09:07;99971.06;;;14.79;nan
77360;BME280;66426;51.454;7.266;2023-07-22T00:10:08;99972.94;;;14.65;nan
77360;BME280;66426;51.454;7.266;2023-07-22T00:11:08;99976.72;;;14.63;nan
77360;BME280;66426;51.454;7.266;2023-07-22T00:12:10;99974.84;;;14.38;nan
77360;BME280;66426;51.454;7.266;2023-07-22T00:13:10;99970.91;;;14.42;nan
77360;BME280;66426;51.454;7.266;2023-07-22T00:14:11;99975.19;;;14.59;nan
77360;BME280;66426;51.454;7.266;2023-07-22T00:15:12;99968.91;;;14.71;nan
77360;BME280;66426;51.454;7.266;2023-07-22T00:16:13;99973.47;;;14.58;nan
77360;BME280;66426;51.454;7.266;2023-07-22T00:17:13;99973.03;;;14.64;nan
77360;BME280;66426;51.454;7.266;2023-07-22T00:18:14;99975.19;;;14.59;nan
77360;BME280;66426;51.454;7.266;2023-07-22T00:19:16;99969.13;;;14.68;nan
77360;BME280;66426;51.454;7.266;2023-07-22T00:20:16;99969.47;;;14.63;nan
77360;BME280;66426;51.454;7.266;2023-07-22T00:21:17;99965.13;;;14.74;nan
77360;BME280;66426;51.454;7.266;2023-07-22T00:22:18;99962.41;;;14.61;nan
77360;BME280;66426;51.454;7.266;2023-07-22T00:23:20;99971.78;;;14.42;nan
77360;BME280;66426;51.454;7.266;2023-07-22T00:24:22;99965.50;;;14.42;nan
77360;BME280;66426;51.454;7.266;2023-07-22T00:25:23;99964.19;;;14.48;nan
77360;BME280;66426;51.454;7.266;2023-07-22T00:26:24;99965.72;;;14.52;nan
77360;BME280;66426;51.454;7.266;2023-07-22T00:27:25;99962.72;;;14.56;nan
77360;BME280;66426;51.454;7.266;2023-07-22T00:28:26;99963.47;;;14.45;nan
77360;BME280;66426;51.454;7.266;2023-07-22T00:29:26;99958.28;;;14.55;nan
77360;BME280;66426;51.454;7.266;2023-07-22T00:30:27;99961.59;;;14.33;nan
77360;BME280;66426;51.454;7.266;2023-07-22T00:31:28;99959.00;;;14.44;nan
77360;BME280;66426;51.454;7.266;2023-07-22T00:32:29;99958.13;;;14.44;nan
77360;BME280;66426;51.454;7.266;2023-07-22T00:33:30;99954.25;;;14.48;nan
77360;BME280;66426;51.454;7.266;2023-07-22T00:34:30;99956.72;;;14.51;nan
77360;BME280;66426;51.454;7.266;2023-07-22T00:35:31;99959.34;;;14.53;nan
77360;BME280;66426;51.454;7.266;2023-07-22T00:36:32;99954.66;;;14.42;nan
77360;BME280;66426;51.454;7.266;2023-07-22T00:37:33;99961.72;;;14.57;nan
77360;BME280;66426;51.454;7.266;2023-07-22T00:38:33;99955.41;;;14.44;nan
77360;BME280;66426;51.454;7.266;2023-07-22T00:39:35;99956.59;;;14.40;nan
77360;BME280;66426;51.454;7.266;2023-07-22T00:40:36;99955.75;;;14.52;nan
77360;BME280;66426;51.454;7.266;2023-07-22T00:41:38;99956.84;;;14.62;nan
77360;BME280;66426;51.454;7.266;2023-07-22T00:42:38;99952.97;;;14.54;nan
77360;BME280;66426;51.454;7.266;2023-07-22T00:43:39;99959.97;;;14.43;nan
77360;BME280;66426;51.454;7.266;2023-07-22T00:44:40;99959.84;;;14.45;nan
77360;BME280;66426;51.454;7.266;2023-07-22T00:45:40;99956.44;;;14.56;nan
77360;BME280;66426;51.454;7.266;2023-07-22T00:46:42;99957.03;;;14.46;nan
77360;BME280;66426;51.454;7.266;2023-07-22T00:47:42;99959.16;;;14.56;nan
77360;BME280;66426;51.454;7.266;2023-07-22T00:48:43;99953.06;;;14.65;nan
77360;BME280;66426;51.454;7.266;2023-07-22T00:49:46;99957.03;;;14.46;nan
77360;BME280;66426;51.454;7.266;2023-07-22T00:50:48;99951.41;;;14.50;nan
77360;BME280;66426;51.454;7.266;2023-07-22T00:51:48;99953.25;;;14.49;nan
77360;BME280;66426;51.454;7.266;2023-07-22T00:52:49;99952.72;;;14.44;nan
77360;BME280;66426;51.454;7.266;2023-07-22T00:53:50;99943.53;;;14.59;nan
77360;BME280;66426;51.454;7.266;2023-07-22T00:54:52;99952.19;;;14.64;nan
77360;BME280;66426;51.454;7.266;2023-07-22T00:55:53;99950.69;;;14.60;nan
77360;BME280;66426;51.454;7.266;2023-07-22T00:56:55;99954.66;;;14.42;nan
77360;BME280;66426;51.454;7.266;2023-07-22T00:57:56;99951.03;;;14.56;nan
77360;BME280;66426;51.454;7.266;2023-07-22T00:58:57;99942.56;;;14.60;nan
77360;BME280;66426;51.454;7.266;2023-07-22T00:59:58;99951.03;;;14.56;nan
77360;BME280;66426;51.454;7.266;2023-07-22T01:00:59;99936.78;;;14.65;nan
77360;BME280;66426;51.454;7.266;2023-07-22T01:01:59;99950.38;;;14.78;nan
77360;BME280;66426;51.454;7.266;2023-07-22T01:03:00;99943.97;;;14.79;nan
77360;BME280;66426;51.454;7.266;2023-07-22T01:04:01;99943.66;;;14.58;nan
77360;BME280;66426;51.454;7.266;2023-07-22T01:05:02;99942.97;;;14.67;nan
77360;BME280;66426;51.454;7.266;2023-07-22T01:06:03;99934.97;;;14.65;nan
77360;BME280;66426;51.454;7.266;2023-07-22T01:07:04;99936.44;;;14.44;nan
77360;BME280;66426;51.454;7.266;2023-07-22T01:08:07;99933.34;;;14.63;nan
77360;BME280;66426;51.454;7.266;2023-07-22T01:09:07;99938.72;;;14.50;nan
77360;BME280;66426;51.454;7.266;2023-07-22T01:10:12;99933.94;;;14.28;nan
77360;BME280;66426;51.454;7.266;2023-07-22T01:11:13;99935.38;;;14.46;nan
77360;BME280;66426;51.454;7.266;2023-07-22T01:12:14;99936.75;;;14.52;nan
77360;BME280;66426;51.454;7.266;2023-07-22T01:13:15;99929.41;;;14.67;nan
77360;BME280;66426;51.454;7.266;2023-07-22T01:14:15;99934.72;;;14.43;nan
77360;BME280;66426;51.454;7.266;2023-07-22T01:15:16;99923.66;;;14.46;nan
77360;BME280;66426;51.454;7.266;2023-07-22T01:16:17;99928.84;;;14.23;nan
77360;BME280;66426;51.454;7.266;2023-07-22T01:17:18;99930.81;;;14.47;nan
77360;BME280;66426;51.454;7.266;2023-07-22T01:18:19;99919.88;;;14.61;nan
77360;BME280;66426;51.454;7.266;2023-07-22T01:19:20;99929.75;;;14.62;nan
77360;BME280;66426;51.454;7.266;2023-07-22T01:20:21;99920.13;;;14.58;nan
77360;BME280;66426;51.454;7.266;2023-07-22T01:21:22;99921.28;;;14.67;nan
77360;BME280;66426;51.454;7.266;2023-07-22T01:22:23;99917.63;;;14.68;nan
77360;BME280;66426;51.454;7.266;2023-07-22T01:23:25;99922.81;;;14.71;nan
77360;BME280;66426;51.454;7.266;2023-07-22T01:24:26;99923.13;;;14.66;nan
77360;BME280;66426;51.454;7.266;2023-07-22T01:25:27;99923.22;;;14.65;nan
77360;BME280;66426;51.454;7.266;2023-07-22T01:26:28;99917.94;;;14.63;nan
77360;BME280;66426;51.454;7.266;2023-07-22T01:27:29;99926.25;;;14.48;nan
77360;BME280;66426;51.454;7.266;2023-07-22T01:28:30;99918.25;;;14.59;nan
77360;BME280;66426;51.454;7.266;2023-07-22T01:29:30;99918.81;;;14.64;nan
77360;BME280;66426;51.454;7.266;2023-07-22T01:30:31;99921.84;;;14.59;nan
77360;BME280;66426;51.454;7.266;2023-07-22T01:31:33;99915.75;;;14.69;nan
77360;BME280;66426;51.454;7.266;2023-07-22T01:32:35;99923.06;;;14.55;nan
77360;BME280;66426;51.454;7.266;2023-07-22T01:33:35;99926.03;;;14.51;nan
77360;BME280;66426;51.454;7.266;2023-07-22T01:34:36;99921.50;;;14.38;nan
77360;BME280;66426;51.454;7.266;2023-07-22T01:35:37;99927.31;;;14.45;nan
77360;BME280;66426;51.454;7.266;2023-07-22T01:36:37;99929.53;;;14.53;nan
77360;BME280;66426;51.454;7.266;2023-07-22T01:37:38;99933.72;;;14.44;nan
77360;BME280;66426;51.454;7.266;2023-07-22T01:38:40;99930.47;;;14.52;nan
77360;BME280;66426;51.454;7.266;2023-07-22T01:39:41;99928.63;;;14.39;nan
77360;BME280;66426;51.454;7.266;2023-07-22T01:40:42;99928.00;;;14.49;nan
77360;BME280;66426;51.454;7.266;2023-07-22T01:41:43;99924.50;;;14.34;nan
77360;BME280;66426;51.454;7.266;2023-07-22T01:42:44;99924.28;;;14.24;nan
77360;BME280;66426;51.454;7.266;2023-07-22T01:43:45;99923.75;;;14.32;nan
77360;BME280;66426;51.454;7.266;2023-07-22T01:44:46;99922.56;;;14.36;nan
77360;BME280;66426;51.454;7.266;2023-07-22T01:45:46;99928.22;;;14.33;nan
77360;BME280;66426;51.454;7.266;2023-07-22T01:46:47;99930.25;;;14.29;nan
77360;BME280;66426;51.454;7.266;2023-07-22T01:47:48;99926.56;;;14.30;nan
77360;BME280;66426;51.454;7.266;2023-07-22T01:48:48;99928.53;;;14.41;nan
77360;BME280;66426;51.454;7.266;2023-07-22T01:49:49;99918.00;;;14.49;nan
77360;BME280;66426;51.454;7.266;2023-07-22T01:50:50;99926.63;;;14.56;nan
77360;BME280;66426;51.454;7.266;2023-07-22T01:51:50;99918.22;;;14.46;nan
77360;BME280;66426;51.454;7.266;2023-07-22T01:52:51;99922.34;;;14.39;nan
77360;BME280;66426;51.454;7.266;2023-07-22T01:53:53;99917.25;;;14.34;nan
77360;BME280;66426;51.454;7.266;2023-07-22T01:54:57;99917.78;;;14.39;nan
77360;BME280;66426;51.454;7.266;2023-07-22T01:55:57;99919.31;;;14.43;nan
77360;BME280;66426;51.454;7.266;2023-07-22T01:56:58;99921.47;;;14.13;nan
77360;BME280;66426;51.454;7.266;2023-07-22T01:57:59;99919.72;;;14.24;nan
77360;BME280;66426;51.454;7.266;2023-07-22T01:58:59;99927.44;;;14.43;nan
77360;BME280;66426;51.454;7.266;2023-07-22T02:00:00;99920.22;;;14.57;nan
77360;BME280;66426;51.454;7.266;2023-07-22T02:01:01;99922.91;;;14.57;nan
77360;BME280;66426;51.454;7.266;2023-07-22T02:02:02;99920.94;;;14.46;nan
77360;BME280;66426;51.454;7.266;2023-07-22T02:03:02;99916.28;;;14.35;nan
77360;BME280;66426;51.454;7.266;2023-07-22T02:04:04;99926.91;;;14.13;nan
77360;BME280;66426;51.454;7.266;2023-07-22T02:05:07;99923.41;;;13.98;nan
77360;BME280;66426;51.454;7.266;2023-07-22T02:06:08;99915.06;;;14.01;nan
77360;BME280;66426;51.454;7.266;2023-07-22T02:07:08;99919.97;;;14.34;nan
77360;BME280;66426;51.454;7.266;2023-07-22T02:08:09;99914.22;;;14.39;nan
77360;BME280;66426;51.454;7.266;2023-07-22T02:09:12;99920.63;;;14.51;nan
77360;BME280;66426;51.454;7.266;2023-07-22T02:10:14;99913.94;;;14.56;nan
77360;BME280;66426;51.454;7.266;2023-07-22T02:11:14;99922.81;;;14.58;nan
77360;BME280;66426;51.454;7.266;2023-07-22T02:12:15;99913.34;;;14.51;nan
77360;BME280;66426;51.454;7.266;2023-07-22T02:13:16;99920.81;;;14.48;nan
77360;BME280;66426;51.454;7.266;2023-07-22T02:14:16;99917.91;;;14.51;nan
77360;BME280;66426;51.454;7.266;2023-07-22T02:15:17;99920.63;;;14.38;nan
77360;BME280;66426;51.454;7.266;2023-07-22T02:16:18;99917.38;;;14.33;nan
77360;BME280;66426;51.454;7.266;2023-07-22T02:17:19;99911.41;;;14.40;nan
77360;BME280;66426;51.454;7.266;2023-07-22T02:18:20;99919.31;;;14.43;nan
77360;BME280;66426;51.454;7.266;2023-07-22T02:19:21;99913.22;;;14.40;nan
77360;BME280;66426;51.454;7.266;2023-07-22T02:20:22;99917.25;;;14.47;nan
77360;BME280;66426;51.454;7.266;2023-07-22T02:21:23;99912.81;;;14.46;nan
77360;BME280;66426;51.454;7.266;2023-07-22T02:22:23;99911.06;;;14.19;nan
77360;BME280;66426;51.454;7.266;2023-07-22T02:23:24;99912.13;;;14.04;nan
77360;BME280;66426;51.454;7.266;2023-07-22T02:24:26;99911.91;;;14.20;nan
77360;BME280;66426;51.454;7.266;2023-07-22T02:25:27;99909.56;;;14.28;nan
77360;BME280;66426;51.454;7.266;2023-07-22T02:26:28;99914.94;;;14.02;nan
77360;BME280;66426;51.454;7.266;2023-07-22T02:27:29;99912.34;;;14.01;nan
77360;BME280;66426;51.454;7.266;2023-07-22T02:28:29;99910.50;;;14.01;nan
77360;BME280;66426;51.454;7.266;2023-07-22T02:29:31;99908.56;;;14.29;nan
77360;BME280;66426;51.454;7.266;2023-07-22T02:30:33;99908.69;;;14.40;nan
77360;BME280;66426;51.454;7.266;2023-07-22T02:31:35;99911.28;;;14.42;nan
77360;BME280;66426;51.454;7.266;2023-07-22T02:32:36;99901.84;;;14.48;nan
77360;BME280;66426;51.454;7.266;2023-07-22T02:33:37;99903.47;;;14.37;nan
77360;BME280;66426;51.454;7.266;2023-07-22T02:34:38;99903.81;;;14.33;nan
77360;BME280;66426;51.454;7.266;2023-07-22T02:35:40;99905.66;;;14.32;nan
77360;BME280;66426;51.454;7.266;2023-07-22T02:36:41;99909.13;;;14.34;nan
77360;BME280;66426;51.454;7.266;2023-07-22T02:37:41;99908.47;;;14.43;nan
77360;BME280;66426;51.454;7.266;2023-07-22T02:38:42;99906.94;;;14.39;nan
77360;BME280;66426;51.454;7.266;2023-07-22T02:39:44;99908.34;;;14.45;nan
77360;BME280;66426;51.454;7.266;2023-07-22T02:40:45;99915.41;;;14.48;nan
77360;BME280;66426;51.454;7.266;2023-07-22T02:41:46;99914.97;;;14.15;nan
77360;BME280;66426;51.454;7.266;2023-07-22T02:42:46;99910.66;;;14.26;nan
77360;BME280;66426;51.454;7.266;2023-07-22T02:43:47;99913.22;;;14.27;nan
77360;BME280;66426;51.454;7.266;2023-07-22T02:44:48;99919.19;;;14.32;nan
77360;BME280;66426;51.454;7.266;2023-07-22T02:45:48;99914.66;;;14.33;nan
77360;BME280;66426;51.454;7.266;2023-07-22T02:46:49;99916.94;;;14.39;nan
77360;BME280;66426;51.454;7.266;2023-07-22T02:47:50;99915.53;;;14.33;nan
77360;BME280;66426;51.454;7.266;2023-07-22T02:48:50;99916.47;;;14.19;nan
77360;BME280;66426;51.454;7.266;2023-07-22T02:49:51;99920.50;;;14.39;nan
77360;BME280;66426;51.454;7.266;2023-07-22T02:50:52;99916.16;;;14.37;nan
77360;BME280;66426;51.454;7.266;2023-07-22T02:51:52;99918.25;;;14.33;nan
77360;BME280;66426;51.454;7.266;2023-07-22T02:52:53;99918.66;;;14.40;nan
77360;BME280;66426;51.454;7.266;2023-07-22T02:53:54;99909.66;;;14.27;nan
77360;BME280;66426;51.454;7.266;2023-07-22T02:55:06;99920.28;;;14.30;nan
77360;BME280;66426;51.454;7.266;2023-07-22T02:56:08;99913.00;;;14.30;nan
77360;BME280;66426;51.454;7.266;2023-07-22T02:57:09;99922.25;;;14.40;nan
77360;BME280;66426;51.454;7.266;2023-07-22T02:58:09;99922.56;;;14.49;nan
77360;BME280;66426;51.454;7.266;2023-07-22T02:59:10;99922.78;;;14.45;nan
77360;BME280;66426;51.454;7.266;2023-07-22T03:00:11;99921.38;;;14.53;nan
77360;BME280;66426;51.454;7.266;2023-07-22T03:01:17;99922.56;;;14.49;nan
77360;BME280;66426;51.454;7.266;2023-07-22T03:02:19;99920.44;;;14.54;nan
77360;BME280;66426;51.454;7.266;2023-07-22T03:03:20;99918.59;;;14.54;nan
77360;BME280;66426;51.454;7.266;2023-07-22T03:04:21;99925.09;;;14.64;nan
77360;BME280;66426;51.454;7.266;2023-07-22T03:05:21;99923.00;;;14.42;nan
77360;BME280;66426;51.454;7.266;2023-07-22T03:06:22;99918.34;;;14.44;nan
77360;BME280;66426;51.454;7.266;2023-07-22T03:07:23;99922.56;;;14.49;nan
77360;BME280;66426;51.454;7.266;2023-07-22T03:08:23;99914.22;;;14.52;nan
77360;BME280;66426;51.454;7.266;2023-07-22T03:09:25;99917.56;;;14.42;nan
77360;BME280;66426;51.454;7.266;2023-07-22T03:10:27;99919.00;;;14.48;nan
77360;BME280;66426;51.454;7.266;2023-07-22T03:11:29;99923.34;;;14.51;nan
77360;BME280;66426;51.454;7.266;2023-07-22T03:12:30;99920.81;;;14.48;nan
77360;BME280;66426;51.454;7.266;2023-07-22T03:13:31;99925.50;;;14.33;nan
77360;BME280;66426;51.454;7.266;2023-07-22T03:14:31;99922.03;;;14.18;nan
77360;BME280;66426;51.454;7.266;2023-07-22T03:15:36;99928.31;;;14.31;nan
77360;BME280;66426;51.454;7.266;2023-07-22T03:16:37;99928.09;;;14.47;nan
77360;BME280;66426;51.454;7.266;2023-07-22T03:17:38;99924.28;;;14.50;nan
77360;BME280;66426;51.454;7.266;2023-07-22T03:18:39;99930.03;;;14.45;nan
77360;BME280;66426;51.454;7.266;2023-07-22T03:19:40;99917.91;;;14.51;nan
77360;BME280;66426;51.454;7.266;2023-07-22T03:20:41;99919.25;;;14.58;nan
77360;BME280;66426;51.454;7.266;2023-07-22T03:21:42;99915.72;;;14.30;nan
77360;BME280;66426;51.454;7.266;2023-07-22T03:22:42;99925.91;;;14.39;nan
77360;BME280;66426;51.454;7.266;2023-07-22T03:23:43;99928.84;;;14.49;nan
77360;BME280;66426;51.454;7.266;2023-07-22T03:24:44;99917.25;;;14.47;nan
77360;BME280;66426;51.454;7.266;2023-07-22T03:25:46;99920.72;;;14.49;nan
77360;BME280;66426;51.454;7.266;2023-07-22T03:26:47;99921.03;;;14.19;nan
77360;BME280;66426;51.454;7.266;2023-07-22T03:27:47;99912.81;;;14.33;nan
77360;BME280;66426;51.454;7.266;2023-07-22T03:28:48;99917.38;;;14.45;nan
77360;BME280;66426;51.454;7.266;2023-07-22T03:29:49;99924.78;;;14.56;nan
77360;BME280;66426;51.454;7.266;2023-07-22T03:30:49;99922.34;;;14.52;nan
77360;BME280;66426;51.454;7.266;2023-07-22T03:31:50;99919.97;;;14.47;nan
77360;BME280;66426;51.454;7.266;2023-07-22T03:32:51;99930.81;;;14.47;nan
77360;BME280;66426;51.454;7.266;2023-07-22T03:33:52;99921.97;;;14.58;nan
77360;BME280;66426;51.454;7.266;2023-07-22T03:34:53;99926.41;;;14.59;nan
77360;BME280;66426;51.454;7.266;2023-07-22T03:35:53;99932.03;;;14.56;nan
77360;BME280;66426;51.454;7.266;2023-07-22T03:36:54;99926.44;;;14.19;nan
77360;BME280;66426;51.454;7.266;2023-07-22T03:37:55;99931.03;;;14.44;nan
77360;BME280;66426;51.454;7.266;2023-07-22T03:38:56;99925.84;;;14.54;nan
77360;BME280;66426;51.454;7.266;2023-07-22T03:39:56;99920.63;;;14.51;nan
77360;BME280;66426;51.454;7.266;2023-07-22T03:40:58;99928.31;;;14.44;nan
77360;BME280;66426;51.454;7.266;2023-07-22T03:41:59;99922.56;;;14.36;nan
77360;BME280;66426;51.454;7.266;2023-07-22T03:43:00;99928.09;;;14.34;nan
77360;BME280;66426;51.454;7.266;2023-07-22T03:44:01;99921.03;;;14.44;nan
77360;BME280;66426;51.454;7.266;2023-07-22T03:45:02;99923.97;;;14.41;nan
77360;BME280;66426;51.454;7.266;2023-07-22T03:46:02;99931.66;;;14.48;nan
77360;BME280;66426;51.454;7.266;2023-07-22T03:47:03;99923.84;;;14.30;nan
77360;BME280;66426;51.454;7.266;2023-07-22T03:48:04;99927.88;;;14.37;nan
77360;BME280;66426;51.454;7.266;2023-07-22T03:49:05;99930.28;;;14.55;nan
77360;BME280;66426;51.454;7.266;2023-07-22T03:50:06;99919.72;;;14.50;nan
77360;BME280;66426;51.454;7.266;2023-07-22T03:51:07;99929.53;;;14.53;nan
77360;BME280;66426;51.454;7.266;2023-07-22T03:52:08;99931.47;;;14.38;nan
77360;BME280;66426;51.454;7.266;2023-07-22T03:53:09;99924.19;;;14.38;nan
77360;BME280;66426;51.454;7.266;2023-07-22T03:54:09;99932.25;;;14.53;nan
77360;BME280;66426;51.454;7.266;2023-07-22T03:55:10;99924.44;;;14.61;nan
77360;BME280;66426;51.454;7.266;2023-07-22T03:56:12;99925.38;;;14.47;nan
77360;BME280;66426;51.454;7.266;2023-07-22T03:57:13;99921.91;;;14.45;nan
77360;BME280;66426;51.454;7.266;2023-07-22T03:58:14;99925.84;;;14.54;nan
77360;BME280;66426;51.454;7.266;2023-07-22T03:59:14;99919.34;;;14.56;nan
77360;BME280;66426;51.454;7.266;2023-07-22T04:00:15;99928.25;;;14.58;nan
77360;BME280;66426;51.454;7.266;2023-07-22T04:01:16;99924.69;;;14.58;nan
77360;BME280;66426;51.454;7.266;2023-07-22T04:02:16;99926.81;;;14.53;nan
77360;BME280;66426;51.454;7.266;2023-07-22T04:03:17;99927.31;;;14.32;nan
77360;BME280;66426;51.454;7.266;2023-07-22T04:04:18;99932.75;;;14.45;nan
77360;BME280;66426;51.454;7.266;2023-07-22T04:05:18;99928.53;;;14.28;nan
77360;BME280;66426;51.454;7.266;2023-07-22T04:06:19;99925.28;;;14.49;nan
77360;BME280;66426;51.454;7.266;2023-07-22T04:07:20;99922.38;;;14.64;nan
77360;BME280;66426;51.454;7.266;2023-07-22T04:08:21;99930.72;;;14.74;nan
77360;BME280;66426;51.454;7.266;2023-07-22T04:09:22;99924.34;;;14.75;nan
77360;BME280;66426;51.454;7.266;2023-07-22T04:10:22;99930.84;;;14.73;nan
77360;BME280;66426;51.454;7.266;2023-07-22T04:11:24;99935.91;;;14.77;nan
77360;BME280;66426;51.454;7.266;2023-07-22T04:12:25;99931.81;;;14.72;nan
77360;BME280;66426;51.454;7.266;2023-07-22T04:13:26;99929.66;;;14.64;nan
77360;BME280;66426;51.454;7.266;2023-07-22T04:14:27;99935.03;;;14.51;nan
77360;BME280;66426;51.454;7.266;2023-07-22T04:15:28;99942.44;;;14.62;nan
77360;BME280;66426;51.454;7.266;2023-07-22T04:16:30;99933.00;;;14.67;nan
77360;BME280;66426;51.454;7.266;2023-07-22T04:17:31;99922.97;;;14.30;nan
77360;BME280;66426;51.454;7.266;2023-07-22T04:18:32;99934.50;;;14.46;nan
77360;BME280;66426;51.454;7.266;2023-07-22T04:19:34;99928.41;;;14.42;nan
77360;BME280;66426;51.454;7.266;2023-07-22T04:20:35;99931.66;;;14.48;nan
77360;BME280;66426;51.454;7.266;2023-07-22T04:21:36;99937.34;;;14.57;nan
77360;BME280;66426;51.454;7.266;2023-07-22T04:22:37;99932.13;;;14.67;nan
77360;BME280;66426;51.454;7.266;2023-07-22T04:23:37;99934.06;;;14.52;nan
77360;BME280;66426;51.454;7.266;2023-07-22T04:24:38;99929.41;;;14.67;nan
77360;BME280;66426;51.454;7.266;2023-07-22T04:25:39;99932.75;;;14.45;nan
77360;BME280;66426;51.454;7.266;2023-07-22T04:26:42;99930.03;;;14.32;nan
77360;BME280;66426;51.454;7.266;2023-07-22T04:27:43;99933.81;;;14.42;nan
77360;BME280;66426;51.454;7.266;2023-07-22T04:28:44;99933.75;;;14.57;nan
77360;BME280;66426;51.454;7.266;2023-07-22T04:29:44;99932.34;;;14.64;nan
77360;BME280;66426;51.454;7.266;2023-07-22T04:30:54;99936.47;;;14.70;nan
77360;BME280;66426;51.454;7.266;2023-07-22T04:31:56;99936.47;;;14.70;nan
77360;BME280;66426;51.454;7.266;2023-07-22T04:32:57;99936.38;;;14.71;nan
77360;BME280;66426;51.454;7.266;2023-07-22T04:33:59;99937.13;;;14.73;nan
77360;BME280;66426;51.454;7.266;2023-07-22T04:34:59;99942.44;;;14.75;nan
77360;BME280;66426;51.454;7.266;2023-07-22T04:36:00;99943.31;;;14.62;nan
77360;BME280;66426;51.454;7.266;2023-07-22T04:37:01;99942.13;;;14.66;nan
77360;BME280;66426;51.454;7.266;2023-07-22T04:38:02;99944.28;;;14.61;nan
77360;BME280;66426;51.454;7.266;2023-07-22T04:39:03;99942.66;;;14.72;nan
77360;BME280;66426;51.454;7.266;2023-07-22T04:40:06;99940.03;;;14.70;nan
77360;BME280;66426;51.454;7.266;2023-07-22T04:41:09;99938.78;;;14.63;nan
77360;BME280;66426;51.454;7.266;2023-07-22T04:42:11;99939.19;;;14.70;nan
77360;BME280;66426;51.454;7.266;2023-07-22T04:43:12;99939.84;;;14.60;nan
77360;BME280;66426;51.454;7.266;2023-07-22T04:44:13;99941.66;;;14.47;nan
77360;BME280;66426;51.454;7.266;2023-07-22T04:45:13;99943.19;;;14.51;nan
77360;BME280;66426;51.454;7.266;2023-07-22T04:46:14;99938.09;;;14.59;nan
77360;BME280;66426;51.454;7.266;2023-07-22T04:47:15;99942.34;;;14.63;nan
77360;BME280;66426;51.454;7.266;2023-07-22T04:48:20;99941.13;;;14.67;nan
77360;BME280;66426;51.454;7.266;2023-07-22T04:49:21;99936.78;;;14.65;nan
77360;BME280;66426;51.454;7.266;2023-07-22T04:50:22;99942.19;;;14.52;nan
77360;BME280;66426;51.454;7.266;2023-07-22T04:51:23;99935.59;;;14.43;nan
77360;BME280;66426;51.454;7.266;2023-07-22T04:52:24;99939.38;;;14.28;nan
77360;BME280;66426;51.454;7.266;2023-07-22T04:53:24;99942.84;;;14.43;nan
77360;BME280;66426;51.454;7.266;2023-07-22T04:54:25;99939.84;;;14.60;nan
77360;BME280;66426;51.454;7.266;2023-07-22T04:55:28;99935.38;;;14.72;nan
77360;BME280;66426;51.454;7.266;2023-07-22T04:56:30;99941.78;;;14.71;nan
77360;BME280;66426;51.454;7.266;2023-07-22T04:57:32;99934.97;;;14.65;nan
77360;BME280;66426;51.454;7.266;2023-07-22T04:58:33;99933.00;;;14.67;nan
77360;BME280;66426;51.454;7.266;2023-07-22T04:59:34;99933.75;;;14.70;nan
77360;BME280;66426;51.454;7.266;2023-07-22T05:00:34;99933.09;;;14.79;nan
77360;BME280;66426;51.454;7.266;2023-07-22T05:01:35;99937.91;;;14.75;nan
77360;BME280;66426;51.454;7.266;2023-07-22T05:02:36;99941.88;;;14.82;nan
77360;BME280;66426;51.454;7.266;2023-07-22T05:03:36;99942.53;;;14.86;nan
77360;BME280;66426;51.454;7.266;2023-07-22T05:04:37;99938.53;;;14.66;nan
77360;BME280;66426;51.454;7.266;2023-07-22T05:05:38;99943.84;;;14.67;nan
77360;BME280;66426;51.454;7.266;2023-07-22T05:06:38;99937.47;;;14.69;nan
77360;BME280;66426;51.454;7.266;2023-07-22T05:07:39;99943.75;;;14.69;nan
77360;BME280;66426;51.454;7.266;2023-07-22T05:08:40;99939.53;;;14.78;nan
77360;BME280;66426;51.454;7.266;2023-07-22T05:09:41;99946.03;;;14.75;nan
77360;BME280;66426;51.454;7.266;2023-07-22T05:10:41;99938.09;;;14.72;nan
77360;BME280;66426;51.454;7.266;2023-07-22T05:11:42;99942.75;;;14.57;nan
77360;BME280;66426;51.454;7.266;2023-07-22T05:12:44;99938.41;;;14.55;nan
77360;BME280;66426;51.454;7.266;2023-07-22T05:13:45;99941.69;;;14.60;nan
77360;BME280;66426;51.454;7.266;2023-07-22T05:14:45;99932.44;;;14.62;nan
77360;BME280;66426;51.454;7.266;2023-07-22T05:15:46;99935.28;;;14.74;nan
77360;BME280;66426;51.454;7.266;2023-07-22T05:16:47;99930.84;;;14.85;nan
77360;BME280;66426;51.454;7.266;2023-07-22T05:17:48;99940.06;;;14.83;nan
77360;BME280;66426;51.454;7.266;2023-07-22T05:18:48;99943.41;;;14.86;nan
77360;BME280;66426;51.454;7.266;2023-07-22T05:19:49;99936.03;;;14.88;nan
77360;BME280;66426;51.454;7.266;2023-07-22T05:20:50;99939.16;;;14.82;nan
77360;BME280;66426;51.454;7.266;2023-07-22T05:21:51;99938.97;;;14.73;nan
77360;BME280;66426;51.454;7.266;2023-07-22T05:22:51;99937.34;;;14.83;nan
77360;BME280;66426;51.454;7.266;2023-07-22T05:23:52;99940.16;;;14.69;nan
77360;BME280;66426;51.454;7.266;2023-07-22T05:24:53;99937.97;;;14.86;nan
77360;BME280;66426;51.454;7.266;2023-07-22T05:25:53;99943.31;;;14.88;nan
77360;BME280;66426;51.454;7.266;2023-07-22T05:26:54;99936.34;;;14.84;nan
77360;BME280;66426;51.454;7.266;2023-07-22T05:27:56;99936.25;;;14.85;nan
77360;BME280;66426;51.454;7.266;2023-07-22T05:28:57;99939.28;;;14.81;nan
77360;BME280;66426;51.454;7.266;2023-07-22T05:29:58;99944.16;;;14.88;nan
77360;BME280;66426;51.454;7.266;2023-07-22T05:30:58;99952.75;;;14.95;nan
77360;BME280;66426;51.454;7.266;2023-07-22T05:31:59;99942.78;;;14.83;nan
77360;BME280;66426;51.454;7.266;2023-07-22T05:33:00;99944.59;;;14.95;nan